Des Moines International Airport
KDSM : now visible

Airfield :











YOU CAN JOIN US ON...

 
LOGIN :

Register | Disclaimer

   EN    FR    IT 

 









Legend :    VFR   Marginal VFR   IFR   Intensive IFR   Very Intensive IFR
Visi :
Ceiling :
>= 8 km
>= 3000ft
5 to 8 km
1000 to 3000 ft
1500m to 5 km
500 to 1000 ft
800 to 1500m
200 to 500 ft
< 800m
< 200 ft
Symbols :   Thunderstorms  Fog  Heavy snow  Heavy precipitations  Wind > 20 kt






- Airport Elevation : 958 ft
- IATA code : DSM


KDSM - Des Moines International

CURRENT METAR :
  • 172014Z 12013G22KT 3/4SM R31/3500V4000FT -SNPL BR VV010 M06/M07 A3018 RMK AO2 PLB14 P0002 T10561072

EXPIRED METARs :
  • 171954Z 11011G22KT 1/2SM R31/3000V3500FT -SN FZFG VV011 M06/M07 A3018 RMK AO2 TWR VIS 3/4 SLP239 DRSN P0005 T10561072
  • 171854Z 11011KT 3/4SM R31/2800V3500FT -SN BR VV011 M06/M08 A3026 RMK AO2 PRESFR SLP265 SNINCR 1/8 DRSN P0010 T10611078
  • 171825Z 13012G20KT 3/4SM R31/3000V6000FT -SN BR VV013 M06/M08 A3031 RMK AO2 P0005 T10611078
  • 171808Z 13011G20KT 1/4SM R31/2000V2400FT SN FZFG VV006 M06/M08 A3033 RMK AO2 P0003 T10611078
  • 171754Z 13012KT 1/4SM R31/1800V2200FT SN FZFG VV005 M07/M08 A3035 RMK AO2 TWR VIS 1/4 SLP295 SNINCR 1/7 DRSN 4/007 933008 P0013 60037 T10671083 11067 21106 56037

TAF KDSM
Valid from the 17 at 21:00 until the 18 at 18:00 UTC


172038Z 1721/1818 12013KT 3/4SM -SN BR OVC010
FM172200 13014G22KT 1/2SM SN OVC010
FM180000 13018G28KT 2SM -FZRASN OVC008
FM180900 21010KT P6SM VCSH OVC003
FM181100 27018G27KT P6SM VCSH OVC008
FM181300 29024G36KT P6SM BKN015



MET'MAP, your aeronautical weather chart ! - Copyright ORBIFLY December 2007 - Disclaimer

ORBIFLY MET'MAP TEAM :

Programming & Development : Alexandra Zaïnal
Concept & original design : Baudouin d'Aumeries
Assistance for programming : Marc-Olivier Méhu
Technical & hardware support : Manuel Goepfert

Contact : metmap@orbifly.com




SOURCES & CREDITS :

   NOAA       Earth
Advisory